< < Back
Terminal Aerodrome Forecast


Current Version              Previous Versions:   1  2  3  4  5  6  7  8  9  

Terminal Aerodrome Forecast

432
FTUS42 KFFC 271121
TAFPDK
TAF
KPDK 271121Z 2712/2812 34003KT P6SM SCT250
     FM271400 34007KT P6SM SCT250
     FM280100 35002KT P6SM SCT025
     FM280900 06004KT P6SM OVC015=



Latest METAR

873
SAUS70 KWBC 280000 RRD
MTRPDK
METAR KPDK 272353Z 33008KT 10SM CLR 04/M05 A3038 RMK AO2 SLP305
T00391050 10083 20039 53009


USA.gov is the U.S. government's official web portal to all federal, state and local government web resources and services.